createdAt,value
2019-06-27T00:06:51.188Z,9.50
2019-06-27T00:13:24.670Z,9.73
2019-06-27T00:15:55.168Z,10.07
2019-06-27T00:18:26.019Z,9.50
2019-06-27T00:21:11.731Z,10.10
2019-06-27T00:23:41.688Z,11.93
2019-06-27T00:26:19.953Z,10.50
2019-06-27T00:28:54.452Z,10.87
2019-06-27T00:31:26.634Z,10.87
2019-06-27T00:34:00.176Z,10.47
2019-06-27T00:36:36.589Z,10.40
2019-06-27T00:39:08.907Z,9.53
2019-06-27T00:41:39.583Z,9.27
2019-06-27T00:44:09.848Z,10.43
2019-06-27T00:46:40.501Z,10.00
2019-06-27T00:49:14.818Z,10.37
2019-06-27T00:51:47.759Z,11.00
2019-06-27T00:54:18.761Z,10.23
2019-06-27T00:56:51.419Z,10.93
2019-06-27T00:59:23.340Z,10.23
2019-06-27T01:01:55.382Z,10.77
2019-06-27T01:04:34.711Z,10.67
2019-06-27T01:07:06.162Z,10.67
2019-06-27T01:09:37.156Z,11.10
2019-06-27T01:12:11.394Z,11.00
2019-06-27T01:14:42.250Z,11.17
2019-06-27T01:17:17.639Z,10.07
2019-06-27T01:19:48.255Z,10.90
2019-06-27T01:22:18.526Z,11.43
2019-06-27T01:24:48.884Z,11.27
2019-06-27T01:27:29.632Z,10.43
2019-06-27T01:29:51.586Z,10.67
2019-06-27T01:32:22.095Z,11.13
2019-06-27T01:34:58.250Z,10.20
2019-06-27T01:37:30.407Z,10.17
2019-06-27T01:40:04.313Z,11.40
2019-06-27T01:42:37.234Z,10.30
2019-06-27T01:45:36.837Z,10.90
2019-06-27T01:48:08.389Z,9.90
2019-06-27T01:50:40.001Z,11.20
2019-06-27T01:53:10.725Z,10.60
2019-06-27T01:55:41.187Z,11.13
2019-06-27T01:58:11.484Z,12.80
2019-06-27T02:00:44.008Z,11.20
2019-06-27T02:03:14.433Z,10.13
2019-06-27T02:07:22.364Z,11.40
2019-06-27T02:08:19.524Z,10.40
2019-06-27T02:17:36.274Z,11.00
2019-06-27T02:20:08.346Z,10.97
2019-06-27T02:22:41.533Z,11.37
2019-06-27T02:25:21.811Z,11.07
2019-06-27T02:28:03.152Z,10.97
2019-06-27T02:30:44.108Z,11.27
2019-06-27T02:33:14.704Z,11.00
2019-06-27T02:35:45.380Z,10.87
2019-06-27T02:38:15.789Z,10.77
2019-06-27T02:40:46.256Z,10.57
2019-06-27T02:43:16.698Z,10.97
2019-06-27T02:45:47.805Z,10.73
2019-06-27T02:48:18.294Z,11.37
2019-06-27T02:50:50.477Z,11.17
2019-06-27T02:53:24.089Z,12.00
2019-06-27T02:55:56.910Z,11.77
2019-06-27T02:58:34.831Z,11.60
2019-06-27T03:01:05.032Z,12.23
2019-06-27T03:03:37.514Z,11.73
2019-06-27T03:06:08.252Z,11.87
2019-06-27T03:08:41.011Z,11.93
2019-06-27T03:11:15.006Z,12.10
2019-06-27T03:13:45.291Z,12.50
2019-06-27T03:16:16.063Z,12.30
2019-06-27T03:18:46.336Z,12.33
2019-06-27T03:21:17.084Z,11.93
2019-06-27T03:23:47.844Z,12.47
2019-06-27T03:26:18.245Z,13.03
2019-06-27T03:28:52.697Z,12.40
2019-06-27T03:31:20.576Z,12.27
2019-06-27T03:33:53.985Z,11.90
2019-06-27T03:36:24.365Z,12.00
2019-06-27T03:38:55.317Z,13.40
2019-06-27T03:41:25.678Z,12.77
2019-06-27T03:43:55.897Z,12.23
2019-06-27T03:46:26.210Z,12.93
2019-06-27T03:48:57.380Z,12.67
2019-06-27T03:51:27.678Z,12.67
2019-06-27T03:53:58.180Z,13.33
2019-06-27T03:56:29.664Z,13.00
2019-06-27T03:59:12.504Z,13.83
2019-06-27T04:01:32.179Z,14.17
2019-06-27T04:04:35.177Z,13.43
2019-06-27T04:07:41.073Z,12.73
2019-06-27T04:10:17.550Z,13.60
2019-06-27T04:12:54.696Z,13.33
2019-06-27T04:15:44.929Z,13.10
2019-06-27T04:18:15.795Z,13.17
2019-06-27T04:20:46.526Z,12.97
2019-06-27T04:23:16.778Z,13.13
2019-06-27T04:25:58.149Z,13.33
2019-06-27T04:29:35.132Z,13.10
2019-06-27T04:32:06.266Z,13.60
2019-06-27T04:34:36.790Z,13.20
2019-06-27T04:37:12.170Z,12.77
2019-06-27T04:39:44.581Z,12.73
2019-06-27T04:42:14.892Z,13.90
2019-06-27T04:44:45.191Z,14.17
2019-06-27T04:47:15.480Z,12.67
2019-06-27T04:49:45.761Z,12.70
2019-06-27T04:52:16.019Z,13.20
2019-06-27T04:54:46.378Z,12.37
2019-06-27T04:57:16.886Z,13.23
2019-06-27T04:59:53.548Z,12.27
2019-06-27T05:02:20.370Z,12.63
2019-06-27T05:04:50.767Z,12.37
2019-06-27T05:07:21.322Z,12.30
2019-06-27T05:10:32.760Z,12.63
2019-06-27T05:13:04.288Z,12.30
2019-06-27T05:15:34.926Z,12.33
2019-06-27T05:18:08.534Z,12.80
2019-06-27T05:20:45.122Z,13.33
2019-06-27T05:23:15.727Z,13.57
2019-06-27T05:25:45.900Z,12.17
2019-06-27T05:28:25.486Z,12.10
2019-06-27T05:31:07.679Z,12.83
2019-06-27T05:33:37.875Z,12.67
2019-06-27T05:36:08.286Z,12.33
2019-06-27T05:38:38.425Z,12.97
2019-06-27T05:41:09.473Z,12.53
2019-06-27T05:43:41.936Z,12.47
2019-06-27T05:46:12.109Z,13.00
2019-06-27T05:48:42.404Z,12.60
2019-06-27T05:51:12.667Z,12.63
2019-06-27T05:53:45.604Z,13.77
2019-06-27T05:56:20.902Z,12.70
2019-06-27T05:58:52.439Z,13.23
2019-06-27T06:01:25.640Z,12.10
2019-06-27T06:03:55.907Z,12.57
2019-06-27T06:06:26.028Z,12.27
2019-06-27T06:08:56.242Z,12.47
2019-06-27T06:11:29.435Z,11.27
2019-06-27T06:13:59.590Z,12.17
2019-06-27T06:16:30.628Z,11.90
2019-06-27T06:19:00.851Z,13.07
2019-06-27T06:21:31.048Z,11.97
2019-06-27T06:24:01.302Z,12.40
2019-06-27T06:26:31.522Z,13.20
2019-06-27T06:29:01.721Z,12.77
2019-06-27T06:31:32.033Z,12.57
2019-06-27T06:34:02.122Z,13.83
2019-06-27T06:36:32.229Z,13.20
2019-06-27T06:39:02.693Z,12.90
2019-06-27T06:41:32.881Z,12.23
2019-06-27T06:44:03.183Z,12.30
2019-06-27T06:46:33.948Z,13.43
2019-06-27T06:49:04.650Z,12.93
2019-06-27T06:51:34.799Z,13.53
2019-06-27T06:54:05.403Z,13.30
2019-06-27T06:56:35.521Z,12.47
2019-06-27T06:59:06.258Z,13.70
2019-06-27T07:01:36.535Z,12.80
2019-06-27T07:04:14.697Z,13.40
2019-06-27T07:06:47.321Z,13.03
2019-06-27T07:09:21.084Z,13.60
2019-06-27T07:11:55.020Z,13.37
2019-06-27T07:14:27.126Z,13.00
2019-06-27T07:16:58.160Z,12.97
2019-06-27T07:19:29.018Z,12.83
2019-06-27T07:22:01.849Z,12.70
2019-06-27T07:24:33.049Z,13.07
2019-06-27T07:27:33.100Z,13.50
2019-06-27T07:30:14.018Z,11.83
2019-06-27T07:32:46.405Z,12.60
2019-06-27T07:35:43.230Z,13.30
2019-06-27T07:38:22.479Z,13.50
2019-06-27T07:41:07.699Z,13.17
2019-06-27T07:43:38.813Z,13.60
2019-06-27T07:46:25.409Z,13.17
2019-06-27T07:52:14.063Z,13.00
2019-06-27T08:07:58.588Z,12.50
2019-06-27T08:10:34.368Z,12.43
2019-06-27T08:20:04.428Z,13.03
2019-06-27T08:23:22.470Z,12.97
2019-06-27T08:25:58.071Z,12.37
2019-06-27T08:32:40.584Z,11.90
2019-06-27T08:35:36.342Z,12.10
2019-06-27T08:38:26.493Z,13.33
2019-06-27T08:46:22.489Z,12.50
2019-06-27T08:59:26.606Z,11.83
2019-06-27T09:02:15.771Z,12.13
2019-06-27T09:04:47.088Z,11.93
2019-06-27T09:11:06.833Z,10.60
2019-06-27T09:13:57.853Z,10.27
2019-06-27T09:32:23.905Z,10.77
2019-06-27T09:34:48.027Z,11.33
2019-06-27T09:37:19.754Z,9.83
2019-06-27T09:39:50.355Z,10.47
2019-06-27T09:42:21.417Z,10.37
2019-06-27T09:44:51.957Z,9.87
2019-06-27T09:47:22.199Z,9.50
2019-06-27T09:49:52.317Z,9.97
2019-06-27T09:52:23.104Z,10.77
2019-06-27T09:59:01.165Z,9.63
2019-06-27T10:01:32.330Z,9.97
2019-06-27T10:04:14.202Z,9.43
2019-06-27T10:09:54.785Z,9.97
2019-06-27T10:13:00.367Z,10.37
2019-06-27T10:15:31.187Z,10.20
2019-06-27T10:18:02.930Z,10.97
2019-06-27T10:20:55.188Z,10.50
2019-06-27T10:27:29.808Z,9.77
2019-06-27T10:30:11.037Z,10.97
2019-06-27T10:33:25.980Z,10.00
2019-06-27T10:36:42.957Z,9.20
2019-06-27T10:39:59.840Z,9.70
2019-06-27T10:42:36.830Z,9.33
2019-06-27T10:45:09.334Z,10.03
2019-06-27T10:48:27.721Z,9.37
2019-06-27T10:50:58.196Z,9.10
2019-06-27T10:53:39.491Z,9.77
2019-06-27T10:56:24.511Z,9.90
2019-06-27T10:58:55.353Z,9.33
2019-06-27T11:01:27.035Z,10.23
2019-06-27T11:04:17.982Z,9.77
2019-06-27T11:06:48.217Z,9.53
2019-06-27T11:09:19.555Z,10.33
2019-06-27T11:11:50.603Z,10.57
2019-06-27T11:14:23.423Z,9.67
2019-06-27T11:17:15.989Z,10.30
2019-06-27T11:19:52.453Z,9.30
2019-06-27T11:22:19.698Z,9.93
2019-06-27T11:24:50.338Z,9.77
2019-06-27T11:27:20.603Z,9.87
2019-06-27T11:29:51.684Z,9.97
2019-06-27T11:32:26.162Z,9.83
2019-06-27T11:34:56.418Z,9.07
2019-06-27T11:37:26.670Z,9.27
2019-06-27T11:39:56.855Z,8.47
2019-06-27T11:42:29.822Z,9.07
2019-06-27T11:44:59.796Z,8.50
2019-06-27T11:47:29.956Z,7.83
2019-06-27T11:50:00.436Z,7.37
2019-06-27T11:52:30.790Z,7.73
2019-06-27T11:55:02.080Z,7.60
2019-06-27T11:57:32.305Z,7.63
2019-06-27T12:00:02.521Z,7.07
2019-06-27T12:02:32.718Z,6.20
2019-06-27T12:05:02.916Z,6.63
2019-06-27T12:07:33.930Z,6.33
2019-06-27T12:10:04.250Z,7.23
2019-06-27T12:12:35.731Z,6.33
2019-06-27T12:15:06.592Z,7.17
2019-06-27T12:17:36.730Z,6.53
2019-06-27T12:20:09.067Z,6.37
2019-06-27T12:22:39.701Z,6.60
2019-06-27T12:25:11.861Z,6.23
2019-06-27T12:27:41.993Z,7.03
2019-06-27T12:30:13.961Z,6.47
2019-06-27T12:32:51.971Z,7.53
2019-06-27T12:35:16.207Z,7.03
2019-06-27T12:37:47.727Z,6.07
2019-06-27T12:40:18.127Z,6.60
2019-06-27T12:42:48.756Z,6.00
2019-06-27T12:45:19.994Z,6.83
2019-06-27T12:47:50.621Z,6.00
2019-06-27T12:50:20.961Z,6.30
2019-06-27T12:52:51.469Z,5.83
2019-06-27T12:55:22.051Z,6.83
2019-06-27T12:57:52.298Z,6.67
2019-06-27T13:00:22.549Z,5.57
2019-06-27T13:02:53.844Z,5.23
2019-06-27T13:05:24.094Z,6.13
2019-06-27T13:07:54.240Z,6.17
2019-06-27T13:10:25.824Z,5.43
2019-06-27T13:12:56.727Z,6.97
2019-06-27T13:15:27.251Z,6.83
2019-06-27T13:17:58.403Z,6.10
2019-06-27T13:20:28.640Z,5.80
2019-06-27T13:22:58.810Z,6.63
2019-06-27T13:25:28.949Z,6.07
2019-06-27T13:27:59.519Z,6.23
2019-06-27T13:30:29.731Z,5.60
2019-06-27T13:33:00.202Z,6.20
2019-06-27T13:35:30.387Z,5.80
2019-06-27T13:38:00.610Z,6.37
2019-06-27T13:40:30.733Z,5.80
2019-06-27T13:43:01.089Z,6.40
2019-06-27T13:45:31.786Z,6.37
2019-06-27T13:48:02.041Z,6.63
2019-06-27T13:50:32.334Z,6.07
2019-06-27T13:53:03.849Z,6.20
2019-06-27T13:55:34.046Z,6.80
2019-06-27T13:58:04.225Z,6.20
2019-06-27T14:00:41.948Z,7.83
2019-06-27T14:03:12.089Z,7.67
2019-06-27T14:05:43.529Z,6.90
2019-06-27T14:08:13.801Z,8.33
2019-06-27T14:10:44.045Z,7.77
2019-06-27T14:13:14.258Z,8.27
2019-06-27T14:15:49.117Z,8.80
2019-06-27T14:18:19.588Z,8.23
2019-06-27T14:20:49.833Z,8.47
2019-06-27T14:23:20.292Z,8.73
2019-06-27T14:25:50.424Z,9.70
2019-06-27T14:28:21.065Z,9.53
2019-06-27T14:31:29.623Z,8.83
2019-06-27T14:34:03.422Z,9.33
2019-06-27T14:36:35.200Z,9.90
2019-06-27T14:39:16.920Z,9.03
2019-06-27T14:41:47.987Z,8.87
2019-06-27T14:44:55.481Z,9.33
2019-06-27T14:47:26.127Z,9.23
2019-06-27T14:49:57.261Z,9.80
2019-06-27T14:52:27.951Z,9.20
2019-06-27T14:54:58.268Z,9.07
2019-06-27T14:57:30.524Z,8.80
2019-06-27T15:00:02.116Z,9.27
2019-06-27T15:02:33.815Z,9.63
2019-06-27T15:05:05.183Z,8.47
2019-06-27T15:07:37.806Z,8.77
2019-06-27T15:10:10.078Z,9.67
2019-06-27T15:12:56.440Z,9.33
2019-06-27T15:15:16.177Z,8.57
2019-06-27T15:17:47.297Z,8.80
2019-06-27T15:20:23.014Z,8.80
2019-06-27T15:22:53.366Z,8.63
2019-06-27T15:25:28.213Z,8.87
2019-06-27T15:28:06.295Z,8.60
2019-06-27T15:30:37.461Z,9.20
2019-06-27T15:33:08.468Z,9.30
2019-06-27T15:35:51.754Z,9.07
2019-06-27T15:49:47.191Z,8.20
2019-06-27T15:52:31.860Z,8.17
2019-06-27T16:06:08.762Z,7.57
2019-06-27T16:08:35.792Z,7.03
2019-06-27T16:11:36.984Z,7.20
2019-06-27T16:14:12.522Z,7.23
2019-06-27T16:16:59.958Z,6.63
2019-06-27T16:20:03.708Z,6.80
2019-06-27T16:22:36.044Z,6.53
2019-06-27T16:25:07.793Z,7.03
2019-06-27T16:28:07.260Z,7.13
2019-06-27T16:30:42.171Z,6.17
2019-06-27T16:33:33.660Z,5.80
2019-06-27T16:36:04.577Z,5.43
2019-06-27T16:38:38.811Z,5.10
2019-06-27T16:56:23.695Z,5.13
2019-06-27T16:59:09.873Z,4.60
2019-06-27T17:05:13.129Z,4.37
2019-06-27T17:08:05.234Z,4.93
2019-06-27T17:10:58.547Z,4.53
2019-06-27T17:13:47.519Z,4.63
2019-06-27T17:16:17.969Z,4.73
2019-06-27T17:22:08.196Z,3.87
2019-06-27T17:25:03.776Z,4.30
2019-06-27T17:27:48.385Z,4.03
2019-06-27T17:30:44.866Z,3.37
2019-06-27T17:33:17.471Z,3.53
2019-06-27T17:35:51.061Z,3.30
2019-06-27T17:38:21.684Z,3.17
2019-06-27T17:40:51.962Z,3.50
2019-06-27T17:43:22.407Z,3.40
2019-06-27T17:46:06.073Z,3.10
2019-06-27T17:48:36.758Z,3.10
2019-06-27T17:51:08.097Z,2.70
2019-06-27T17:53:39.013Z,2.80
2019-06-27T17:56:09.187Z,3.20
2019-06-27T17:58:39.523Z,2.60
2019-06-27T18:01:13.077Z,2.90
2019-06-27T18:03:47.433Z,2.80
2019-06-27T18:06:18.521Z,2.90
2019-06-27T18:08:55.842Z,3.00
2019-06-27T18:12:06.103Z,2.87
2019-06-27T18:17:33.092Z,2.77
2019-06-27T18:19:56.412Z,2.40
2019-06-27T18:22:28.554Z,2.30
2019-06-27T18:25:16.221Z,2.70
2019-06-27T18:27:48.439Z,2.23
2019-06-27T18:31:18.245Z,2.27
2019-06-27T18:33:57.838Z,2.27
2019-06-27T18:36:37.650Z,2.43
2019-06-27T18:39:16.267Z,2.10
2019-06-27T18:44:48.447Z,2.30
2019-06-27T18:51:43.747Z,2.27
2019-06-27T18:54:24.055Z,1.70
2019-06-27T18:57:12.612Z,1.60
2019-06-27T18:59:53.930Z,2.03
2019-06-27T19:02:25.447Z,2.00
2019-06-27T19:05:05.315Z,1.87
2019-06-27T19:07:46.785Z,2.10
2019-06-27T19:10:38.467Z,2.00
2019-06-27T19:13:13.344Z,1.60
2019-06-27T19:18:45.951Z,1.73
2019-06-27T19:25:22.961Z,1.63
2019-06-27T19:28:38.988Z,1.50
2019-06-27T19:34:55.636Z,1.27
2019-06-27T19:37:30.822Z,1.53
2019-06-27T19:40:31.324Z,1.47
2019-06-27T19:43:30.891Z,1.70
2019-06-27T19:46:14.735Z,1.30
2019-06-27T19:48:47.385Z,1.50
2019-06-27T19:51:19.006Z,1.50
2019-06-27T19:53:53.635Z,1.67
2019-06-27T19:59:44.455Z,1.47
2019-06-27T20:02:14.828Z,1.70
2019-06-27T20:08:19.406Z,1.97
2019-06-27T20:13:29.697Z,1.50
2019-06-27T20:16:28.451Z,1.87
2019-06-27T20:18:59.894Z,1.50
2019-06-27T20:22:14.244Z,1.80
2019-06-27T20:24:59.821Z,1.70
2019-06-27T20:27:30.474Z,1.50
2019-06-27T20:30:15.431Z,1.70
2019-06-27T20:33:01.925Z,1.97
2019-06-27T20:35:32.318Z,1.50
2019-06-27T20:38:34.408Z,1.60
2019-06-27T20:40:53.740Z,1.70
2019-06-27T20:43:23.958Z,1.93
2019-06-27T20:46:39.039Z,1.60
2019-06-27T20:49:36.961Z,2.00
2019-06-27T20:52:07.090Z,1.50
2019-06-27T20:54:41.414Z,1.83
2019-06-27T20:57:12.067Z,1.90
2019-06-27T20:59:42.515Z,1.53
2019-06-27T21:02:12.869Z,1.77
2019-06-27T21:04:44.242Z,1.50
2019-06-27T21:07:14.537Z,1.70
2019-06-27T21:09:44.879Z,1.80
2019-06-27T21:12:22.886Z,1.90
2019-06-27T21:14:53.443Z,1.97
2019-06-27T21:17:24.465Z,1.97
2019-06-27T21:19:55.027Z,2.00
2019-06-27T21:22:26.538Z,1.80
2019-06-27T21:24:56.941Z,1.80
2019-06-27T21:27:27.218Z,1.50
2019-06-27T21:30:01.379Z,2.00
2019-06-27T21:32:32.237Z,1.83
2019-06-27T21:35:02.555Z,1.57
2019-06-27T21:37:33.043Z,2.10
2019-06-27T21:40:03.448Z,2.17
2019-06-27T21:42:37.111Z,1.80
2019-06-27T21:45:08.768Z,1.80
2019-06-27T21:47:44.414Z,1.70
2019-06-27T21:50:18.321Z,1.60
2019-06-27T21:52:49.792Z,1.60
2019-06-27T21:55:22.118Z,1.60
2019-06-27T21:58:00.124Z,1.60
2019-06-27T22:00:36.011Z,1.40
2019-06-27T22:03:13.167Z,1.30
2019-06-27T22:05:44.046Z,1.47
2019-06-27T22:08:14.256Z,1.70
2019-06-27T22:10:44.795Z,1.77
2019-06-27T22:13:15.206Z,1.33
2019-06-27T22:15:47.942Z,1.50
2019-06-27T22:18:18.539Z,1.60
2019-06-27T22:20:49.935Z,1.60
2019-06-27T22:23:20.065Z,1.70
2019-06-27T22:25:50.547Z,1.63
2019-06-27T22:28:21.013Z,1.60
2019-06-27T22:30:52.587Z,1.90
2019-06-27T22:33:25.742Z,1.97
2019-06-27T22:35:55.899Z,1.80
2019-06-27T22:38:43.391Z,1.50
2019-06-27T22:41:31.345Z,1.70
2019-06-27T22:44:19.166Z,1.90
2019-06-27T22:47:08.003Z,1.50
2019-06-27T22:49:40.805Z,1.70
2019-06-27T22:52:45.117Z,1.97
2019-06-27T22:55:22.915Z,1.70
2019-06-27T22:57:53.986Z,1.67
2019-06-27T23:00:24.339Z,1.60
2019-06-27T23:02:54.421Z,1.70
2019-06-27T23:05:24.517Z,1.67
2019-06-27T23:07:54.613Z,1.80
2019-06-27T23:10:25.029Z,1.67
2019-06-27T23:12:55.416Z,1.63
2019-06-27T23:15:25.500Z,1.93
2019-06-27T23:17:58.021Z,1.70
2019-06-27T23:20:28.161Z,1.73
2019-06-27T23:22:58.313Z,1.90
2019-06-27T23:25:28.809Z,1.53
2019-06-27T23:27:58.955Z,1.77
2019-06-27T23:30:29.349Z,1.87
2019-06-27T23:32:59.459Z,1.90
2019-06-27T23:35:29.874Z,1.53
2019-06-27T23:37:59.982Z,2.00
2019-06-27T23:40:32.937Z,1.80
2019-06-27T23:43:02.817Z,1.80
2019-06-27T23:45:34.057Z,1.70
2019-06-27T23:48:04.294Z,2.07
2019-06-27T23:50:39.752Z,2.10
2019-06-27T23:53:10.081Z,1.87
2019-06-27T23:55:40.228Z,1.90
2019-06-27T23:58:10.326Z,1.90
